createdAt,value
2019-05-13T00:03:34.934Z,1029.45
2019-05-13T00:04:34.916Z,1029.40
2019-05-13T00:05:34.898Z,1029.42
2019-05-13T00:08:18.126Z,1029.42
2019-05-13T00:09:18.118Z,1029.41
2019-05-13T00:10:18.101Z,1029.44
2019-05-13T00:19:23.682Z,1029.45
2019-05-13T00:20:24.153Z,1029.40
2019-05-13T00:22:56.238Z,1029.46
2019-05-13T00:23:56.214Z,1029.44
2019-05-13T00:24:56.202Z,1029.48
2019-05-13T00:25:56.177Z,1029.47
2019-05-13T00:26:56.160Z,1029.49
2019-05-13T00:27:56.144Z,1029.51
2019-05-13T00:28:56.121Z,1029.49
2019-05-13T00:29:56.111Z,1029.49
2019-05-13T00:30:56.083Z,1029.48
2019-05-13T00:31:56.064Z,1029.52
2019-05-13T00:32:56.040Z,1029.51
2019-05-13T00:33:56.023Z,1029.49
2019-05-13T00:34:56.000Z,1029.49
2019-05-13T00:35:55.983Z,1029.48
2019-05-13T00:37:07.656Z,1029.49
2019-05-13T00:37:55.940Z,1029.51
2019-05-13T00:38:55.927Z,1029.50
2019-05-13T00:39:55.907Z,1029.47
2019-05-13T00:40:55.884Z,1029.46
2019-05-13T00:41:55.864Z,1029.46
2019-05-13T00:42:55.848Z,1029.44
2019-05-13T00:43:55.824Z,1029.44
2019-05-13T00:44:55.812Z,1029.45
2019-05-13T00:45:55.792Z,1029.44
2019-05-13T00:46:55.767Z,1029.48
2019-05-13T00:47:55.751Z,1029.47
2019-05-13T00:48:55.730Z,1029.50
2019-05-13T00:49:55.708Z,1029.52
2019-05-13T00:50:55.699Z,1029.49
2019-05-13T00:51:55.671Z,1029.48
2019-05-13T00:52:55.649Z,1029.49
2019-05-13T00:53:55.629Z,1029.46
2019-05-13T00:54:55.617Z,1029.50
2019-05-13T00:55:55.590Z,1029.47
2019-05-13T00:56:55.572Z,1029.45
2019-05-13T00:57:55.552Z,1029.46
2019-05-13T00:58:55.534Z,1029.46
2019-05-13T00:59:55.516Z,1029.45
2019-05-13T01:00:55.503Z,1029.44
2019-05-13T01:02:55.459Z,1029.50
2019-05-13T01:03:55.437Z,1029.47
2019-05-13T01:04:55.417Z,1029.47
2019-05-13T01:05:55.399Z,1029.51
2019-05-13T01:06:55.381Z,1029.50
2019-05-13T01:07:55.356Z,1029.52
2019-05-13T01:08:55.340Z,1029.46
2019-05-13T01:09:55.320Z,1029.46
2019-05-13T01:10:55.306Z,1029.49
2019-05-13T01:11:55.284Z,1029.49
2019-05-13T01:12:55.263Z,1029.47
2019-05-13T01:13:55.244Z,1029.50
2019-05-13T01:14:55.218Z,1029.51
2019-05-13T01:15:55.204Z,1029.55
2019-05-13T01:16:55.185Z,1029.52
2019-05-13T01:17:55.162Z,1029.49
2019-05-13T01:18:55.142Z,1029.50
2019-05-13T01:19:55.124Z,1029.52
2019-05-13T01:20:55.106Z,1029.53
2019-05-13T01:21:55.085Z,1029.53
2019-05-13T01:22:55.062Z,1029.51
2019-05-13T01:23:55.042Z,1029.52
2019-05-13T01:24:55.035Z,1029.50
2019-05-13T01:25:55.004Z,1029.49
2019-05-13T01:26:54.983Z,1029.49
2019-05-13T01:27:54.970Z,1029.46
2019-05-13T01:28:54.955Z,1029.48
2019-05-13T01:29:54.916Z,1029.47
2019-05-13T01:30:54.910Z,1029.47
2019-05-13T01:31:54.885Z,1029.49
2019-05-13T01:32:54.871Z,1029.51
2019-05-13T01:33:54.846Z,1029.51
2019-05-13T01:34:54.826Z,1029.52
2019-05-13T01:35:54.809Z,1029.51
2019-05-13T01:36:54.798Z,1029.54
2019-05-13T01:37:54.765Z,1029.51
2019-05-13T01:38:54.747Z,1029.51
2019-05-13T01:39:54.729Z,1029.52
2019-05-13T01:40:54.711Z,1029.50
2019-05-13T01:41:54.691Z,1029.53
2019-05-13T01:42:54.668Z,1029.52
2019-05-13T01:43:54.648Z,1029.56
2019-05-13T01:44:54.628Z,1029.56
2019-05-13T01:45:54.610Z,1029.55
2019-05-13T01:46:54.593Z,1029.58
2019-05-13T01:47:54.570Z,1029.58
2019-05-13T01:48:54.554Z,1029.60
2019-05-13T01:49:54.532Z,1029.56
2019-05-13T01:50:54.511Z,1029.58
2019-05-13T01:51:54.491Z,1029.62
2019-05-13T01:52:54.672Z,1029.60
2019-05-13T01:53:54.449Z,1029.60
2019-05-13T01:54:54.489Z,1029.60
2019-05-13T01:55:54.408Z,1029.64
2019-05-13T01:56:54.392Z,1029.64
2019-05-13T01:57:54.370Z,1029.63
2019-05-13T01:58:54.347Z,1029.65
2019-05-13T01:59:54.332Z,1029.65
2019-05-13T02:00:55.319Z,1029.65
2019-05-13T02:01:54.289Z,1029.69
2019-05-13T02:02:54.527Z,1029.61
2019-05-13T02:03:54.588Z,1029.60
2019-05-13T02:04:54.231Z,1029.63
2019-05-13T02:05:54.559Z,1029.70
2019-05-13T02:06:54.414Z,1029.67
2019-05-13T02:07:59.822Z,1029.68
2019-05-13T02:08:54.634Z,1029.75
2019-05-13T02:09:54.129Z,1029.72
2019-05-13T02:10:54.746Z,1029.73
2019-05-13T02:11:54.093Z,1029.72
2019-05-13T02:12:54.073Z,1029.74
2019-05-13T02:13:54.207Z,1029.75
2019-05-13T02:14:54.033Z,1029.74
2019-05-13T02:15:54.852Z,1029.76
2019-05-13T02:16:53.989Z,1029.76
2019-05-13T02:17:53.973Z,1029.71
2019-05-13T02:18:53.963Z,1029.78
2019-05-13T02:19:54.131Z,1029.78
2019-05-13T02:20:55.466Z,1029.73
2019-05-13T02:21:54.409Z,1029.76
2019-05-13T02:22:53.871Z,1029.81
2019-05-13T02:23:53.853Z,1029.76
2019-05-13T02:24:53.832Z,1029.76
2019-05-13T02:25:54.526Z,1029.76
2019-05-13T02:26:54.364Z,1029.82
2019-05-13T02:27:54.238Z,1029.81
2019-05-13T02:28:54.181Z,1029.82
2019-05-13T02:29:54.065Z,1029.87
2019-05-13T02:30:56.131Z,1029.85
2019-05-13T02:31:56.210Z,1029.89
2019-05-13T02:32:53.676Z,1029.85
2019-05-13T02:33:53.652Z,1029.89
2019-05-13T02:34:53.648Z,1029.88
2019-05-13T02:35:54.072Z,1029.90
2019-05-13T02:36:53.591Z,1029.92
2019-05-13T02:37:53.576Z,1029.91
2019-05-13T02:38:53.554Z,1029.94
2019-05-13T02:39:53.532Z,1029.95
2019-05-13T02:40:53.830Z,1029.91
2019-05-13T02:41:53.535Z,1029.95
2019-05-13T02:42:53.475Z,1030.01
2019-05-13T02:43:53.462Z,1029.98
2019-05-13T02:44:53.437Z,1029.98
2019-05-13T02:45:54.046Z,1029.93
2019-05-13T02:46:53.391Z,1029.96
2019-05-13T02:47:53.381Z,1029.93
2019-05-13T02:48:53.351Z,1029.97
2019-05-13T02:49:53.566Z,1029.95
2019-05-13T02:50:54.113Z,1029.92
2019-05-13T02:51:54.585Z,1029.94
2019-05-13T02:52:53.338Z,1029.95
2019-05-13T02:53:53.252Z,1029.94
2019-05-13T02:54:53.233Z,1029.96
2019-05-13T02:55:53.279Z,1029.97
2019-05-13T02:56:53.190Z,1029.97
2019-05-13T02:57:53.168Z,1029.98
2019-05-13T02:58:53.156Z,1029.99
2019-05-13T02:59:53.130Z,1029.98
2019-05-13T03:00:53.958Z,1030.03
2019-05-13T03:01:53.700Z,1030.01
2019-05-13T03:02:53.071Z,1030.02
2019-05-13T03:03:53.109Z,1030.04
2019-05-13T03:04:53.052Z,1030.02
2019-05-13T03:05:53.425Z,1029.99
2019-05-13T03:06:52.988Z,1030.01
2019-05-13T03:07:53.277Z,1030.03
2019-05-13T03:08:54.473Z,1030.07
2019-05-13T03:09:53.046Z,1030.04
2019-05-13T03:10:53.665Z,1030.04
2019-05-13T03:11:53.721Z,1030.11
2019-05-13T03:12:53.518Z,1030.10
2019-05-13T03:13:53.347Z,1030.10
2019-05-13T03:14:53.419Z,1030.06
2019-05-13T03:15:52.812Z,1030.11
2019-05-13T03:16:52.926Z,1030.11
2019-05-13T03:17:52.889Z,1030.13
2019-05-13T03:18:52.747Z,1030.12
2019-05-13T03:19:53.402Z,1030.13
2019-05-13T03:20:53.126Z,1030.13
2019-05-13T03:21:52.922Z,1030.16
2019-05-13T03:22:53.008Z,1030.13
2019-05-13T03:23:52.784Z,1030.11
2019-05-13T03:24:52.699Z,1030.15
2019-05-13T03:25:53.652Z,1030.13
2019-05-13T03:26:53.467Z,1030.14
2019-05-13T03:27:53.970Z,1030.16
2019-05-13T03:28:52.611Z,1030.17
2019-05-13T03:29:53.459Z,1030.16
2019-05-13T03:30:56.273Z,1030.18
2019-05-13T03:31:55.525Z,1030.18
2019-05-13T03:33:00.404Z,1030.14
2019-05-13T03:33:56.029Z,1030.14
2019-05-13T03:34:56.234Z,1030.18
2019-05-13T03:35:55.983Z,1030.13
2019-05-13T03:36:56.670Z,1030.19
2019-05-13T03:37:52.850Z,1030.12
2019-05-13T03:39:05.113Z,1030.14
2019-05-13T03:39:52.474Z,1030.15
2019-05-13T03:40:52.704Z,1030.14
2019-05-13T03:41:52.964Z,1030.12
2019-05-13T03:42:53.445Z,1030.18
2019-05-13T03:43:53.238Z,1030.15
2019-05-13T03:44:52.572Z,1030.17
2019-05-13T03:45:52.729Z,1030.16
2019-05-13T03:46:53.105Z,1030.18
2019-05-13T03:47:52.778Z,1030.15
2019-05-13T03:48:52.912Z,1030.23
2019-05-13T03:49:53.250Z,1030.21
2019-05-13T03:50:53.342Z,1030.25
2019-05-13T03:51:53.440Z,1030.24
2019-05-13T03:52:52.498Z,1030.29
2019-05-13T03:53:53.435Z,1030.26
2019-05-13T03:54:52.214Z,1030.28
2019-05-13T03:55:54.192Z,1030.29
2019-05-13T03:56:53.074Z,1030.25
2019-05-13T03:57:53.191Z,1030.27
2019-05-13T03:58:53.697Z,1030.30
2019-05-13T03:59:52.717Z,1030.30
2019-05-13T04:00:52.010Z,1030.26
2019-05-13T04:01:52.559Z,1030.27
2019-05-13T04:02:52.202Z,1030.30
2019-05-13T04:03:52.903Z,1030.31
2019-05-13T04:04:53.086Z,1030.33
2019-05-13T04:05:52.890Z,1030.30
2019-05-13T04:06:53.033Z,1030.34
2019-05-13T04:07:52.436Z,1030.30
2019-05-13T04:08:53.951Z,1030.36
2019-05-13T04:09:52.478Z,1030.33
2019-05-13T04:10:52.511Z,1030.39
2019-05-13T04:11:52.642Z,1030.37
2019-05-13T04:12:52.749Z,1030.42
2019-05-13T04:13:52.635Z,1030.37
2019-05-13T04:14:52.877Z,1030.41
2019-05-13T04:15:53.018Z,1030.40
2019-05-13T04:16:53.148Z,1030.38
2019-05-13T04:17:53.090Z,1030.43
2019-05-13T04:18:53.609Z,1030.38
2019-05-13T04:19:52.942Z,1030.42
2019-05-13T04:20:52.972Z,1030.39
2019-05-13T04:21:52.868Z,1030.40
2019-05-13T04:22:52.970Z,1030.39
2019-05-13T04:23:53.119Z,1030.41
2019-05-13T04:24:53.040Z,1030.44
2019-05-13T04:25:53.695Z,1030.44
2019-05-13T04:26:53.242Z,1030.42
2019-05-13T04:27:52.398Z,1030.42
2019-05-13T04:28:52.626Z,1030.45
2019-05-13T04:29:52.739Z,1030.49
2019-05-13T04:30:52.664Z,1030.50
2019-05-13T04:31:53.181Z,1030.46
2019-05-13T04:32:53.353Z,1030.47
2019-05-13T04:33:53.105Z,1030.56
2019-05-13T04:34:52.883Z,1030.50
2019-05-13T04:35:52.961Z,1030.56
2019-05-13T04:36:52.016Z,1030.56
2019-05-13T04:37:52.570Z,1030.57
2019-05-13T04:38:52.826Z,1030.65
2019-05-13T04:39:55.805Z,1030.64
2019-05-13T04:40:52.863Z,1030.65
2019-05-13T04:41:52.972Z,1030.68
2019-05-13T04:42:53.358Z,1030.71
2019-05-13T04:43:54.113Z,1030.71
2019-05-13T04:44:53.216Z,1030.71
2019-05-13T04:45:52.412Z,1030.70
2019-05-13T04:46:52.292Z,1030.67
2019-05-13T04:47:52.934Z,1030.74
2019-05-13T04:48:53.105Z,1030.69
2019-05-13T04:49:53.463Z,1030.72
2019-05-13T04:50:53.364Z,1030.72
2019-05-13T04:51:52.327Z,1030.71
2019-05-13T04:52:52.534Z,1030.73
2019-05-13T04:53:56.080Z,1030.67
2019-05-13T04:54:52.756Z,1030.75
2019-05-13T04:55:52.661Z,1030.71
2019-05-13T04:56:52.567Z,1030.73
2019-05-13T04:57:53.258Z,1030.74
2019-05-13T04:58:52.774Z,1030.79
2019-05-13T04:59:51.768Z,1030.78
2019-05-13T05:01:02.694Z,1030.78
2019-05-13T05:01:57.851Z,1030.80
2019-05-13T05:02:55.011Z,1030.80
2019-05-13T05:03:53.039Z,1030.82
2019-05-13T05:04:52.458Z,1030.81
2019-05-13T05:05:52.717Z,1030.80
2019-05-13T05:06:52.647Z,1030.84
2019-05-13T05:07:52.496Z,1030.83
2019-05-13T05:08:52.485Z,1030.87
2019-05-13T05:10:23.357Z,1030.81
2019-05-13T05:10:53.829Z,1030.83
2019-05-13T05:11:52.920Z,1030.84
2019-05-13T05:12:51.881Z,1030.85
2019-05-13T05:13:53.090Z,1030.85
2019-05-13T05:14:52.200Z,1030.85
2019-05-13T05:15:52.235Z,1030.83
2019-05-13T05:16:52.241Z,1030.87
2019-05-13T05:17:52.169Z,1030.87
2019-05-13T05:18:52.652Z,1030.87
2019-05-13T05:19:52.534Z,1030.90
2019-05-13T05:20:51.925Z,1030.90
2019-05-13T05:21:52.732Z,1030.91
2019-05-13T05:22:51.257Z,1030.89
2019-05-13T05:23:51.528Z,1030.89
2019-05-13T05:24:52.076Z,1030.89
2019-05-13T05:25:52.158Z,1030.93
2019-05-13T05:26:52.171Z,1030.95
2019-05-13T05:27:51.422Z,1030.99
2019-05-13T05:28:51.905Z,1030.99
2019-05-13T05:29:51.627Z,1031.02
2019-05-13T05:30:51.845Z,1030.98
2019-05-13T05:31:51.941Z,1030.97
2019-05-13T05:32:51.855Z,1031.06
2019-05-13T05:33:51.660Z,1030.98
2019-05-13T05:34:51.907Z,1031.05
2019-05-13T05:35:52.052Z,1031.05
2019-05-13T05:36:52.006Z,1031.05
2019-05-13T05:37:52.086Z,1031.06
2019-05-13T05:38:51.380Z,1031.07
2019-05-13T05:39:51.258Z,1031.01
2019-05-13T05:40:51.091Z,1031.08
2019-05-13T05:41:51.424Z,1031.07
2019-05-13T05:42:51.765Z,1031.11
2019-05-13T05:43:52.043Z,1031.09
2019-05-13T05:44:51.830Z,1031.16
2019-05-13T05:45:51.233Z,1031.11
2019-05-13T05:46:51.502Z,1031.17
2019-05-13T05:47:51.117Z,1031.13
2019-05-13T05:48:50.805Z,1031.10
2019-05-13T05:49:51.607Z,1031.10
2019-05-13T05:50:51.575Z,1031.11
2019-05-13T05:51:51.478Z,1031.08
2019-05-13T05:52:51.363Z,1031.08
2019-05-13T05:53:51.676Z,1031.07
2019-05-13T05:54:51.554Z,1031.08
2019-05-13T05:55:51.644Z,1031.10
2019-05-13T05:56:51.814Z,1031.09
2019-05-13T05:57:52.110Z,1031.16
2019-05-13T05:58:49.522Z,1031.17
2019-05-13T05:59:51.745Z,1031.18
2019-05-13T06:00:51.956Z,1031.17
2019-05-13T06:01:52.351Z,1031.23
2019-05-13T06:02:49.439Z,1031.25
2019-05-13T06:03:49.421Z,1031.20
2019-05-13T06:04:52.015Z,1031.20
2019-05-13T06:05:51.229Z,1031.20
2019-05-13T06:06:52.038Z,1031.20
2019-05-13T06:07:51.342Z,1031.23
2019-05-13T06:08:51.491Z,1031.19
2019-05-13T06:09:51.465Z,1031.25
2019-05-13T06:10:52.932Z,1031.19
2019-05-13T06:11:49.266Z,1031.25
2019-05-13T06:12:49.239Z,1031.21
2019-05-13T06:13:53.838Z,1031.26
2019-05-13T06:14:52.200Z,1031.23
2019-05-13T06:15:51.335Z,1031.25
2019-05-13T06:16:51.700Z,1031.21
2019-05-13T06:17:51.630Z,1031.25
2019-05-13T06:18:49.130Z,1031.24
2019-05-13T06:19:51.100Z,1031.25
2019-05-13T06:20:51.069Z,1031.23
2019-05-13T06:21:51.202Z,1031.23
2019-05-13T06:22:51.415Z,1031.26
2019-05-13T06:23:51.703Z,1031.26
2019-05-13T06:24:49.025Z,1031.28
2019-05-13T06:25:48.984Z,1031.31
2019-05-13T06:26:48.968Z,1031.31
2019-05-13T06:27:51.091Z,1031.32
2019-05-13T06:28:48.933Z,1031.31
2019-05-13T06:29:50.254Z,1031.26
2019-05-13T06:30:48.890Z,1031.28
2019-05-13T06:31:48.869Z,1031.31
2019-05-13T06:32:48.861Z,1031.36
2019-05-13T06:33:48.836Z,1031.34
2019-05-13T06:34:48.818Z,1031.35
2019-05-13T06:35:48.794Z,1031.38
2019-05-13T06:36:48.774Z,1031.38
2019-05-13T06:37:48.764Z,1031.36
2019-05-13T06:38:51.167Z,1031.37
2019-05-13T06:39:51.094Z,1031.35
2019-05-13T06:41:00.425Z,1031.38
2019-05-13T06:41:48.685Z,1031.33
2019-05-13T06:42:48.669Z,1031.35
2019-05-13T06:43:48.644Z,1031.34
2019-05-13T06:44:48.626Z,1031.35
2019-05-13T06:45:48.608Z,1031.32
2019-05-13T06:46:48.586Z,1031.34
2019-05-13T06:47:48.571Z,1031.36
2019-05-13T06:48:48.550Z,1031.36
2019-05-13T06:49:48.542Z,1031.40
2019-05-13T06:50:48.516Z,1031.40
2019-05-13T06:51:48.494Z,1031.37
2019-05-13T06:52:48.524Z,1031.39
2019-05-13T06:53:48.459Z,1031.39
2019-05-13T06:54:48.441Z,1031.35
2019-05-13T06:55:48.426Z,1031.36
2019-05-13T06:56:48.405Z,1031.39
2019-05-13T06:57:48.386Z,1031.39
2019-05-13T06:58:48.370Z,1031.37
2019-05-13T06:59:48.353Z,1031.40
2019-05-13T07:00:48.341Z,1031.41
2019-05-13T07:01:48.316Z,1031.35
2019-05-13T07:02:48.297Z,1031.37
2019-05-13T07:03:48.282Z,1031.38
2019-05-13T07:04:48.264Z,1031.39
2019-05-13T07:05:48.244Z,1031.40
2019-05-13T07:06:48.230Z,1031.40
2019-05-13T07:07:48.209Z,1031.40
2019-05-13T07:08:48.189Z,1031.40
2019-05-13T07:09:48.167Z,1031.40
2019-05-13T07:10:48.154Z,1031.38
2019-05-13T07:11:48.213Z,1031.39
2019-05-13T07:12:48.123Z,1031.41
2019-05-13T07:13:48.106Z,1031.44
2019-05-13T07:14:48.089Z,1031.46
2019-05-13T07:15:48.072Z,1031.42
2019-05-13T07:16:48.051Z,1031.46
2019-05-13T07:17:48.034Z,1031.48
2019-05-13T07:18:48.015Z,1031.54
2019-05-13T07:19:47.999Z,1031.48
2019-05-13T07:20:47.986Z,1031.47
2019-05-13T07:21:47.962Z,1031.45
2019-05-13T07:22:47.947Z,1031.49
2019-05-13T07:23:51.007Z,1031.47
2019-05-13T07:24:47.920Z,1031.45
2019-05-13T07:25:47.903Z,1031.48
2019-05-13T07:26:47.878Z,1031.54
2019-05-13T07:27:47.862Z,1031.53
2019-05-13T07:28:47.842Z,1031.54
2019-05-13T07:29:47.829Z,1031.59
2019-05-13T07:30:47.811Z,1031.61
2019-05-13T07:31:47.795Z,1031.64
2019-05-13T07:32:47.786Z,1034.75
2019-05-13T07:33:47.770Z,1041.44
2019-05-13T07:34:47.760Z,1049.17
2019-05-13T07:35:47.768Z,1053.07
2019-05-13T07:36:47.723Z,1052.04
2019-05-13T07:37:47.701Z,1051.87
2019-05-13T07:42:14.219Z,1052.77
2019-05-13T07:43:14.203Z,1053.42
2019-05-13T07:44:14.192Z,1054.62
2019-05-13T07:45:14.174Z,1055.51
2019-05-13T07:46:14.171Z,1055.52
2019-05-13T07:47:16.005Z,1054.51
2019-05-13T07:48:21.240Z,1052.93
2019-05-13T07:49:14.134Z,1050.35
2019-05-13T07:50:14.127Z,1050.64
2019-05-13T07:51:14.111Z,1051.99
2019-05-13T07:52:14.099Z,1052.44
2019-05-13T07:53:18.806Z,1051.82
2019-05-13T07:54:14.081Z,1031.78
2019-05-13T07:55:14.081Z,1032.96
2019-05-13T07:56:14.066Z,1049.83
2019-05-13T07:57:14.061Z,1048.32
2019-05-13T07:58:14.053Z,1033.63
2019-05-13T07:59:14.042Z,1031.77
2019-05-13T08:00:14.035Z,1031.42
2019-05-13T08:01:14.029Z,1031.40
2019-05-13T08:02:14.023Z,1033.87
2019-05-13T08:03:14.015Z,1046.85
2019-05-13T08:04:22.353Z,1045.95
2019-05-13T08:05:14.000Z,1045.56
2019-05-13T08:06:13.997Z,1044.50
2019-05-13T08:07:13.989Z,1033.17
2019-05-13T08:08:13.976Z,1034.30
2019-05-13T08:09:13.969Z,1033.52
2019-05-13T08:10:13.962Z,1034.99
2019-05-13T08:11:13.962Z,1040.46
2019-05-13T08:12:14.618Z,1036.98
2019-05-13T08:13:13.948Z,1040.09
2019-05-13T08:14:13.941Z,1038.54
2019-05-13T08:15:13.933Z,1039.77
2019-05-13T08:16:13.931Z,1032.23
2019-05-13T08:17:13.963Z,1038.56
2019-05-13T08:18:13.922Z,1037.97
2019-05-13T08:19:13.912Z,1037.20
2019-05-13T08:20:13.907Z,1036.35
2019-05-13T08:21:13.903Z,1035.63
2019-05-13T08:22:13.897Z,1035.19
2019-05-13T08:23:13.895Z,1035.05
2019-05-13T08:24:13.891Z,1034.92
2019-05-13T08:25:13.892Z,1034.44
2019-05-13T08:26:13.883Z,1034.05
2019-05-13T08:27:13.881Z,1031.94
2019-05-13T08:28:13.875Z,1033.33
2019-05-13T08:29:13.875Z,1033.75
2019-05-13T08:30:13.874Z,1033.23
2019-05-13T08:31:13.867Z,1033.40
2019-05-13T08:32:13.872Z,1033.07
2019-05-13T08:33:13.863Z,1032.24
2019-05-13T08:34:13.866Z,1031.85
2019-05-13T08:35:13.868Z,1032.72
2019-05-13T08:36:13.862Z,1032.87
2019-05-13T08:37:13.851Z,1031.84
2019-05-13T08:38:14.046Z,1031.82
2019-05-13T08:39:13.846Z,1031.68
2019-05-13T08:40:13.844Z,1031.58
2019-05-13T08:41:18.891Z,1031.56
2019-05-13T08:42:19.004Z,1031.65
2019-05-13T08:43:13.836Z,1031.78
2019-05-13T08:44:13.832Z,1032.85
2019-05-13T08:45:13.829Z,1032.79
2019-05-13T08:46:13.820Z,1032.69
2019-05-13T08:47:13.820Z,1032.55
2019-05-13T08:48:13.822Z,1032.55
2019-05-13T08:49:13.817Z,1032.56
2019-05-13T08:50:13.810Z,1032.63
2019-05-13T08:51:13.811Z,1032.74
2019-05-13T08:52:13.820Z,1032.68
2019-05-13T08:53:13.802Z,1031.91
2019-05-13T08:54:13.804Z,1032.90
2019-05-13T08:55:16.149Z,1032.78
2019-05-13T08:56:13.799Z,1031.92
2019-05-13T08:57:13.789Z,1031.87
2019-05-13T08:58:13.797Z,1032.68
2019-05-13T08:59:13.789Z,1032.54
2019-05-13T09:00:13.913Z,1032.57
2019-05-13T09:01:13.794Z,1032.05
2019-05-13T09:02:13.781Z,1031.67
2019-05-13T09:03:13.780Z,1032.48
2019-05-13T09:04:13.780Z,1032.44
2019-05-13T09:05:13.782Z,1032.37
2019-05-13T09:06:13.776Z,1032.34
2019-05-13T09:07:13.873Z,1032.29
2019-05-13T09:08:13.779Z,1032.22
2019-05-13T09:09:13.772Z,1032.13
2019-05-13T09:10:13.770Z,1032.13
2019-05-13T09:11:13.764Z,1032.12
2019-05-13T09:12:28.649Z,1031.79
2019-05-13T09:13:13.763Z,1031.50
2019-05-13T09:14:13.765Z,1032.14
2019-05-13T09:15:13.765Z,1032.22
2019-05-13T09:16:13.763Z,1032.40
2019-05-13T09:17:13.760Z,1031.77
2019-05-13T09:18:13.776Z,1031.76
2019-05-13T09:19:16.319Z,1031.75
2019-05-13T09:20:13.752Z,1031.71
2019-05-13T09:21:13.757Z,1032.48
2019-05-13T09:22:13.756Z,1032.43
2019-05-13T09:23:13.757Z,1032.50
2019-05-13T09:24:25.317Z,1031.66
2019-05-13T09:25:13.750Z,1031.69
2019-05-13T09:26:13.750Z,1031.70
2019-05-13T09:27:13.746Z,1031.67
2019-05-13T09:28:13.750Z,1031.63
2019-05-13T09:29:13.744Z,1031.61
2019-05-13T09:30:13.740Z,1031.53
2019-05-13T09:31:13.748Z,1031.54
2019-05-13T09:32:13.734Z,1031.51
2019-05-13T09:33:13.732Z,1031.48
2019-05-13T09:34:13.726Z,1031.42
2019-05-13T09:35:13.730Z,1031.40
2019-05-13T09:36:13.730Z,1031.42
2019-05-13T09:37:13.722Z,1031.42
2019-05-13T09:38:13.721Z,1031.37
2019-05-13T09:39:13.721Z,1031.41
2019-05-13T09:40:13.718Z,1031.42
2019-05-13T09:41:13.712Z,1031.45
2019-05-13T09:42:13.705Z,1031.47
2019-05-13T09:43:13.700Z,1031.46
2019-05-13T09:44:13.711Z,1031.64
2019-05-13T09:45:13.698Z,1031.75
2019-05-13T09:46:13.690Z,1031.84
2019-05-13T09:47:13.686Z,1031.82
2019-05-13T09:48:13.677Z,1031.55
2019-05-13T09:49:19.857Z,1031.69
2019-05-13T09:50:27.981Z,1031.67
2019-05-13T09:51:13.661Z,1031.66
2019-05-13T09:52:13.659Z,1031.67
2019-05-13T09:53:13.654Z,1031.57
2019-05-13T09:54:13.649Z,1031.52
2019-05-13T09:55:25.395Z,1031.49
2019-05-13T09:56:13.643Z,1031.52
2019-05-13T09:57:13.639Z,1031.49
2019-05-13T09:58:13.631Z,1031.53
2019-05-13T09:59:13.625Z,1031.53
2019-05-13T10:00:13.624Z,1031.57
2019-05-13T10:01:13.622Z,1031.64
2019-05-13T10:02:13.812Z,1031.63
2019-05-13T10:03:14.222Z,1031.71
2019-05-13T10:04:13.605Z,1031.71
2019-05-13T10:05:13.602Z,1031.66
2019-05-13T10:06:13.597Z,1031.66
2019-05-13T10:07:13.703Z,1031.68
2019-05-13T10:08:13.590Z,1031.69
2019-05-13T10:09:13.588Z,1031.48
2019-05-13T10:10:13.580Z,1031.71
2019-05-13T10:11:13.582Z,1031.43
2019-05-13T10:12:13.577Z,1032.71
2019-05-13T10:13:15.668Z,1033.51
2019-05-13T10:14:13.567Z,1033.44
2019-05-13T10:15:13.565Z,1034.03
2019-05-13T10:16:13.566Z,1034.03
2019-05-13T10:17:13.564Z,1033.98
2019-05-13T10:18:13.569Z,1034.06
2019-05-13T10:19:13.558Z,1034.11
2019-05-13T10:20:13.555Z,1034.10
2019-05-13T10:21:13.553Z,1034.10
2019-05-13T10:22:13.559Z,1034.03
2019-05-13T10:23:13.553Z,1034.05
2019-05-13T10:24:13.546Z,1034.08
2019-05-13T10:25:13.549Z,1034.06
2019-05-13T10:26:14.577Z,1034.04
2019-05-13T10:27:13.546Z,1033.99
2019-05-13T10:28:13.543Z,1033.95
2019-05-13T10:29:13.543Z,1033.93
2019-05-13T10:30:13.547Z,1033.90
2019-05-13T10:31:13.543Z,1033.97
2019-05-13T10:32:13.543Z,1031.43
2019-05-13T10:33:13.543Z,1031.33
2019-05-13T10:34:14.235Z,1031.38
2019-05-13T10:35:13.540Z,1031.38
2019-05-13T10:36:13.543Z,1031.35
2019-05-13T10:37:13.539Z,1031.41
2019-05-13T10:38:13.614Z,1031.35
2019-05-13T10:39:13.534Z,1031.41
2019-05-13T10:40:13.534Z,1031.44
2019-05-13T10:41:13.543Z,1031.46
2019-05-13T10:42:13.531Z,1031.65
2019-05-13T10:43:29.896Z,1032.13
2019-05-13T10:44:13.528Z,1033.68
2019-05-13T10:45:13.526Z,1033.70
2019-05-13T10:46:13.526Z,1033.60
2019-05-13T10:47:13.532Z,1033.60
2019-05-13T10:48:13.643Z,1033.52
2019-05-13T10:49:13.525Z,1033.46
2019-05-13T10:50:13.520Z,1033.39
2019-05-13T10:51:13.523Z,1033.38
2019-05-13T10:52:13.522Z,1033.35
2019-05-13T10:53:13.521Z,1033.36
2019-05-13T10:54:13.517Z,1031.75
2019-05-13T10:55:13.516Z,1031.42
2019-05-13T10:56:13.518Z,1031.39
2019-05-13T10:57:13.917Z,1031.37
2019-05-13T10:58:13.517Z,1032.86
2019-05-13T10:59:13.513Z,1032.93
2019-05-13T11:00:13.516Z,1031.45
2019-05-13T11:01:13.521Z,1031.31
2019-05-13T11:02:13.678Z,1031.33
2019-05-13T11:03:13.511Z,1031.74
2019-05-13T11:04:13.993Z,1031.30
2019-05-13T11:05:13.512Z,1031.27
2019-05-13T11:06:13.506Z,1031.40
2019-05-13T11:07:13.509Z,1031.42
2019-05-13T11:08:13.506Z,1031.31
2019-05-13T11:09:13.504Z,1031.26
2019-05-13T11:10:13.634Z,1031.26
2019-05-13T11:11:13.503Z,1031.23
2019-05-13T11:12:13.506Z,1031.17
2019-05-13T11:13:13.506Z,1031.09
2019-05-13T11:14:15.672Z,1031.11
2019-05-13T11:15:13.491Z,1031.10
2019-05-13T11:16:13.499Z,1031.10
2019-05-13T11:17:13.611Z,1031.09
2019-05-13T11:18:19.094Z,1031.09
2019-05-13T11:19:13.486Z,1031.13
2019-05-13T11:20:13.483Z,1031.17
2019-05-13T11:21:13.482Z,1031.13
2019-05-13T11:22:13.478Z,1031.15
2019-05-13T11:23:13.472Z,1031.28
2019-05-13T11:24:13.472Z,1032.07
2019-05-13T11:25:13.472Z,1032.24
2019-05-13T11:26:13.463Z,1032.16
2019-05-13T11:27:13.459Z,1031.63
2019-05-13T11:28:13.458Z,1031.69
2019-05-13T11:29:13.458Z,1032.10
2019-05-13T11:30:13.454Z,1031.75
2019-05-13T11:31:13.446Z,1032.30
2019-05-13T11:32:13.554Z,1031.87
2019-05-13T11:33:13.445Z,1031.61
2019-05-13T11:34:13.446Z,1032.01
2019-05-13T11:35:13.439Z,1032.12
2019-05-13T11:36:18.919Z,1032.01
2019-05-13T11:37:13.433Z,1031.94
2019-05-13T11:38:13.443Z,1031.99
2019-05-13T11:39:13.438Z,1032.00
2019-05-13T11:40:13.432Z,1031.98
2019-05-13T11:41:13.429Z,1031.91
2019-05-13T11:42:13.941Z,1031.94
2019-05-13T11:43:13.425Z,1031.90
2019-05-13T11:44:16.759Z,1031.93
2019-05-13T11:45:13.423Z,1031.91
2019-05-13T11:46:13.427Z,1031.94
2019-05-13T11:47:13.419Z,1031.90
2019-05-13T11:48:13.421Z,1031.92
2019-05-13T11:49:13.424Z,1031.99
2019-05-13T11:50:13.420Z,1031.93
2019-05-13T11:51:13.455Z,1031.99
2019-05-13T11:52:13.424Z,1032.00
2019-05-13T11:53:31.502Z,1031.92
2019-05-13T11:54:14.179Z,1031.85
2019-05-13T11:55:13.421Z,1031.82
2019-05-13T11:56:13.431Z,1031.80
2019-05-13T11:57:13.422Z,1031.84
2019-05-13T11:58:14.098Z,1031.75
2019-05-13T11:59:14.233Z,1030.83
2019-05-13T12:00:13.763Z,1030.83
2019-05-13T12:01:13.426Z,1030.84
2019-05-13T12:02:14.228Z,1030.79
2019-05-13T12:03:13.429Z,1030.75
2019-05-13T12:04:13.438Z,1030.79
2019-05-13T12:05:13.427Z,1030.75
2019-05-13T12:06:13.459Z,1030.77
2019-05-13T12:07:13.703Z,1030.76
2019-05-13T12:08:13.426Z,1030.68
2019-05-13T12:09:13.537Z,1030.66
2019-05-13T12:10:13.429Z,1030.69
2019-05-13T12:11:14.331Z,1030.69
2019-05-13T12:12:13.585Z,1030.69
2019-05-13T12:13:13.429Z,1030.68
2019-05-13T12:14:37.490Z,1030.68
2019-05-13T12:15:26.908Z,1030.65
2019-05-13T12:16:13.426Z,1030.65
2019-05-13T12:17:14.186Z,1030.58
2019-05-13T12:18:13.420Z,1030.61
2019-05-13T12:19:13.414Z,1030.65
2019-05-13T12:20:13.417Z,1030.61
2019-05-13T12:21:13.424Z,1030.58
2019-05-13T12:22:13.589Z,1031.44
2019-05-13T12:23:13.471Z,1031.42
2019-05-13T12:24:13.409Z,1031.40